Terminal Aerodrome Forecast
Issued by NWS Greer, SC

Home | Current Version | Previous Version | Text Only | Print | Product List | Glossary On
Versions: 1 2 3 4 5 6 7 8 9 10 11 12 13 14 15 16 17 18 19 20 21 22 23 24
000
FTUS42 KGSP 190700 AAA
TAFCLT
TAF AMD
KCLT 190702Z 1907/2006 03011G17KT 5SM -RA BR SCT010 OVC035
     FM190800 03012G20KT 4SM RA BR SCT008 OVC013
      TEMPO 1908/1912 3SM RA BR BKN008 OVC012
     FM191300 03014G24KT 3SM RA BR OVC010
     FM191800 04015G26KT 6SM -RA BR OVC012
     FM200100 04014G22KT 5SM BR VCSH OVC015=

USA.gov is the U.S. government's official web portal to all federal, state and local government web resources and services.